Pagrindinis puslapis
METAR-TAF:

METAR-TAF

Oro uostai :

Khon Kaen, Tailandas

platuma: 16-26N, ilguma: 102-50E, Aukštis: 165 m

Dabartinis oras

Ataskaita buvo paskelbta 47 minutes, ne 23:00 UTC
Vėjas 2 kt nuo kintamojo kryptimis
Temperatūra 25°C
Drėgmė 100%
Slėgis 1007 hPa
Matomumas: 9000 m
Mažai debesys ne aukštis 3000 ft

METAR: VTUK 042300Z VRB02KT 9000 FEW030 25/25 Q1007 NOSIG

Laikas: 06:47 (23:47 UTC)

Prognozė

Ataskaita buvo paskelbta 47 minutes, ne 23:00 UTC
Prognozė galioja nuo 05 metu 00 UTC su 05 metu 24 UTC
Vėjas 5 kt iš Pietvakarių
Matomumas 10 km arba daugiau
Mažai debesys ne aukštis 3000 ft
Išsisklaidę debesys ne aukštis 10000 ft
Laikinai
nuo 05 metu 08 UTC su 05 metu 14 UTC
Vėjas 15 kt nuo kintamojo kryptimis
Matomumas: 4500 m
Mažai debesys ne aukštis 1800 ft, Liūtiniai kamuoliniai debesys.
Su prošvaistėmis ne aukštis 3000 ft
Su prošvaistėmis ne aukštis 8000 ft
perkūnija, lietus

TAF: VTUK 042300Z 0500/0524 22005KT 9999 FEW030 SCT100 TEMPO 0508/0514 VRB15KT 4500 TSRA FEW018CB BKN030 BKN080

Orai ataskaitas ir orų prognozės (METAR, TAF).

turimą stotys yra geltonos ir raudonos taškus žemėlapyje.

Perkelti pele per norėdami pamatyti stoties vardą.

Tada spustelėkite, norėdami matyti oro stebėjimo ir prognozės.

Norėdami pakeisti žemėlapį: spustelėkite ant žalios mygtukų su juodo kryžiaus žemyn,; žalią mygtuką su brūkšneliu, jei norite nutolinti; arba žalių rodyklių gretimoms žemėlapius.


METAR-TAF: